Time;durP1;ratioP1;P1;durP2;ratioP2;P2;SDS_P1;SDS_P2;PMS_P1;PMS_P2;Temp;Humidity;BMP_temperature;BMP_pressure;BME280_temperature;BME280_humidity;BME280_pressure;Samples;Min_cycle;Max_cycle;Signal;HPM_P1;HPM_P2
2023/12/15 00:02:29;;;;;;;;;38.75;33.50;;;;;13.72;65.84;100440.59;146597;613;46914;-65
2023/12/15 00:05:21;;;;;;;;;59.75;46.50;;;;;13.70;66.00;100445.75;146601;606;46020;-65
2023/12/15 00:08:23;;;;;;;;;52.75;42.75;;;;;13.60;65.55;100460.19;146598;570;47016;-66
2023/12/15 00:11:19;;;;;;;;;50.75;42.00;;;;;13.54;66.52;100454.75;146606;564;46020;-65
2023/12/15 00:14:27;;;;;;;;;;;;;;;;;;;;;
2023/12/15 00:17:30;;;;;;;;;46.75;37.50;;;;;13.38;67.06;100466.34;146604;586;47011;-65
2023/12/15 00:20:27;;;;;;;;;38.25;32.00;;;;;13.36;67.10;100467.13;146602;586;47028;-64
2023/12/15 00:23:40;;;;;;;;;23.75;22.25;;;;;13.27;66.55;100470.31;146602;574;46020;-64
2023/12/15 00:26:53;;;;;;;;;20.75;18.50;;;;;13.23;67.29;100476.19;146598;629;47016;-63
2023/12/15 00:29:48;;;;;;;;;17.00;15.00;;;;;13.23;67.29;100481.37;146604;723;46020;-65
2023/12/15 00:32:41;;;;;;;;;15.75;13.25;;;;;13.18;67.62;100477.75;146596;671;46916;-65
2023/12/15 00:35:58;;;;;;;;;9.25;8.25;;;;;9.24;66.17;99797.91;146604;573;46010;-66
2023/12/15 00:38:52;;;;;;;;;9.25;6.50;;;;;13.09;67.83;100474.81;146603;581;46012;-66
2023/12/15 00:41:48;;;;;;;;;8.25;7.50;;;;;13.08;67.47;100480.81;146604;622;46020;-65
2023/12/15 00:44:50;;;;;;;;;7.75;5.75;;;;;13.01;67.30;100473.63;146605;572;46012;-66
2023/12/15 00:47:46;;;;;;;;;2.75;2.50;;;;;12.89;68.24;100482.72;146602;696;47021;-66
2023/12/15 00:50:47;;;;;;;;;6.00;3.75;;;;;12.79;68.02;100485.81;146601;711;47016;-66
2023/12/15 00:53:48;;;;;;;;;4.25;3.00;;;;;12.73;68.90;100490.78;146608;645;46021;-65
2023/12/15 00:56:49;;;;;;;;;4.00;4.00;;;;;12.74;69.19;100486.47;146604;733;47012;-64
2023/12/15 00:59:44;;;;;;;;;4.00;2.33;;;;;12.77;69.21;100491.78;146606;597;46020;-66
2023/12/15 01:02:39;;;;;;;;;4.00;3.00;;;;;12.75;69.03;100491.75;146607;606;46016;-65
2023/12/15 01:05:56;;;;;;;;;5.50;2.25;;;;;12.79;68.96;100490.16;146605;609;46014;-65
2023/12/15 01:08:49;;;;;;;;;2.33;1.67;;;;;12.75;69.75;100488.25;146602;600;47013;-65
2023/12/15 01:11:50;;;;;;;;;6.00;2.25;;;;;12.74;69.82;100487.38;146603;621;46020;-64
2023/12/15 01:14:45;;;;;;;;;3.50;2.50;;;;;12.78;69.21;100494.47;146601;611;47012;-64
2023/12/15 01:17:41;;;;;;;;;3.25;1.75;;;;;12.84;68.82;100493.81;146605;641;46916;-64
2023/12/15 01:20:36;;;;;;;;;3.00;1.00;;;;;12.86;68.40;100492.13;146600;581;47012;-64
2023/12/15 01:23:48;;;;;;;;;4.00;2.33;;;;;12.83;68.13;100489.44;146607;612;47010;-64
2023/12/15 01:26:54;;;;;;;;;4.00;2.25;;;;;12.82;68.92;100493.75;146599;592;47012;-64
2023/12/15 01:29:46;;;;;;;;;2.67;2.67;;;;;12.81;69.07;100491.97;146608;658;46020;-66
2023/12/15 01:32:46;;;;;;;;;4.50;2.00;;;;;12.84;69.07;100494.69;146605;703;46016;-64
2023/12/15 01:35:50;;;;;;;;;3.00;3.00;;;;;12.88;69.10;100491.37;146605;625;46020;-65
2023/12/15 01:38:45;;;;;;;;;3.00;1.00;;;;;12.96;69.06;100491.69;146605;573;46016;-64
2023/12/15 01:41:57;;;;;;;;;4.25;2.75;;;;;13.01;68.09;100482.31;146603;670;46020;-65
2023/12/15 01:45:00;;;;;;;;;2.25;1.50;;;;;13.08;68.58;100488.63;146602;688;47016;-64
2023/12/15 01:48:05;;;;;;;;;1.00;0.33;;;;;13.12;68.75;100495.75;146609;570;46020;-64
2023/12/15 01:51:04;;;;;;;;;5.00;2.75;;;;;13.15;68.55;100495.88;146604;586;46016;-65
2023/12/15 01:54:02;;;;;;;;;13.25;12.00;;;;;13.17;68.51;100495.06;146605;569;46029;-65
2023/12/15 01:56:56;;;;;;;;;8.25;6.50;;;;;13.20;68.55;100496.91;146605;574;47012;-66
2023/12/15 01:59:53;;;;;;;;;7.50;5.00;;;;;13.18;68.54;100491.66;146600;604;48011;-66
2023/12/15 02:02:48;;;;;;;;;2.67;1.00;;;;;13.19;68.46;100489.94;146603;606;46016;-67
2023/12/15 02:06:06;;;;;;;;;1.67;1.00;;;;;13.27;67.68;100498.03;146606;577;46020;-65
2023/12/15 02:09:04;;;;;;;;;2.25;2.00;;;;;13.40;67.58;100493.34;146602;638;47012;-65
2023/12/15 02:11:58;;;;;;;;;1.25;1.25;;;;;13.48;67.65;100484.91;146602;636;48010;-66
2023/12/15 02:14:55;;;;;;;;;5.00;3.00;;;;;13.50;67.53;100488.47;146607;578;46013;-66
2023/12/15 02:17:57;;;;;;;;;4.00;3.00;;;;;13.50;67.46;100496.28;146602;577;47010;-67
2023/12/15 02:20:51;;;;;;;;;3.75;2.00;;;;;13.54;67.43;100490.34;146605;581;46014;-65
2023/12/15 02:23:51;;;;;;;;;4.75;3.50;;;;;13.60;67.26;100480.13;146601;566;47020;-66
2023/12/15 02:26:43;;;;;;;;;1.50;1.50;;;;;13.66;67.64;100479.47;146607;610;46012;-66
2023/12/15 02:29:40;;;;;;;;;1.00;1.00;;;;;13.73;66.97;100482.31;146607;570;46010;-63
2023/12/15 02:32:52;;;;;;;;;6.00;4.25;;;;;13.78;66.44;100490.31;146602;564;46012;-63
2023/12/15 02:35:47;;;;;;;;;8.00;6.75;;;;;13.79;66.17;100481.66;146604;726;46020;-63
2023/12/15 02:38:52;;;;;;;;;9.25;6.00;;;;;13.80;66.54;100475.59;146602;653;47016;-63
2023/12/15 02:41:48;;;;;;;;;7.25;7.25;;;;;13.79;66.71;100487.75;146606;583;47020;-64
2023/12/15 02:44:48;;;;;;;;;9.25;8.75;;;;;13.77;65.87;100485.94;146601;591;47013;-64
2023/12/15 02:47:52;;;;;;;;;25.50;23.50;;;;;13.69;66.35;100492.59;146603;589;46020;-64
2023/12/15 02:50:50;;;;;;;;;29.25;22.75;;;;;13.57;66.20;100499.16;146598;627;47016;-64
2023/12/15 02:53:54;;;;;;;;;20.50;19.50;;;;;13.45;67.67;100495.22;146604;643;46916;-65
2023/12/15 02:56:46;;;;;;;;;14.00;12.25;;;;;13.29;67.58;100502.47;146603;628;46038;-64
2023/12/15 02:59:41;;;;;;;;;16.00;13.50;;;;;13.19;67.62;100508.16;146605;591;46021;-66
2023/12/15 03:02:59;;;;;;;;;16.00;13.00;;;;;9.38;66.84;99858.00;146600;598;46014;-64
2023/12/15 03:05:59;;;;;;;;;11.25;10.25;;;;;13.04;68.16;100513.66;146599;582;48010;-64
2023/12/15 03:08:52;;;;;;;;;19.75;18.75;;;;;13.02;68.45;100510.12;146603;577;46016;-64
2023/12/15 03:12:08;;;;;;;;;12.25;10.00;;;;;12.98;68.18;100517.75;146605;571;46020;-64
2023/12/15 03:15:16;;;;;;;;;11.50;9.75;;;;;12.90;68.66;100514.87;146601;575;46914;-66
2023/12/15 03:18:09;;;;;;;;;10.25;7.50;;;;;12.80;69.71;100526.62;146607;604;46010;-65
2023/12/15 03:21:05;;;;;;;;;7.25;4.25;;;;;12.72;69.97;100525.44;146600;685;46016;-65
2023/12/15 03:23:56;;;;;;;;;5.75;4.75;;;;;12.68;70.13;100526.16;146603;564;47010;-65
2023/12/15 03:26:52;;;;;;;;;5.00;3.00;;;;;12.63;70.29;100525.97;146605;717;46014;-65
2023/12/15 03:29:44;;;;;;;;;6.50;4.50;;;;;12.63;70.55;100519.88;146609;570;46021;-63
2023/12/15 03:32:41;;;;;;;;;9.25;7.00;;;;;12.63;71.11;100519.88;146594;601;48016;-65
2023/12/15 03:35:37;;;;;;;;;10.50;7.50;;;;;12.65;70.55;100528.66;146601;572;46020;-64
2023/12/15 03:38:48;;;;;;;;;;;;;;;;;;;;;
2023/12/15 03:41:56;;;;;;;;;9.50;6.25;;;;;12.76;71.24;100531.66;146605;621;46010;-64
2023/12/15 03:44:57;;;;;;;;;10.00;6.25;;;;;12.82;71.37;100527.56;146602;564;47014;-65
2023/12/15 03:48:06;;;;;;;;;8.00;6.00;;;;;12.87;70.89;100535.56;146607;565;46014;-64
2023/12/15 03:50:59;;;;;;;;;12.00;8.00;;;;;12.88;71.21;100532.13;146604;593;47012;-64
2023/12/15 03:53:56;;;;;;;;;11.75;10.50;;;;;12.90;71.85;100525.28;146604;571;47020;-64
2023/12/15 03:57:09;;;;;;;;;16.25;10.25;;;;;12.87;70.91;100533.84;146605;576;46012;-64
2023/12/15 04:00:30;;;;;;;;;15.25;11.75;;;;;8.82;71.60;99841.81;146608;595;46011;-64
2023/12/15 04:03:33;;;;;;;;;12.75;10.00;;;;;12.82;72.46;100542.31;146604;620;46012;-66
2023/12/15 04:06:29;;;;;;;;;18.25;11.25;;;;;12.81;73.10;100544.03;146606;680;46015;-65
2023/12/15 04:09:29;;;;;;;;;12.50;12.50;;;;;12.82;72.62;100547.50;146601;619;47012;-65
2023/12/15 04:12:24;;;;;;;;;14.50;11.75;;;;;12.81;72.55;100548.34;146603;597;46020;-65
2023/12/15 04:15:26;;;;;;;;;21.75;15.00;;;;;12.77;72.75;100549.91;146602;590;46016;-64
2023/12/15 04:18:35;;;;;;;;;21.00;15.00;;;;;12.73;71.75;100565.34;146604;581;46020;-65
2023/12/15 04:21:42;;;;;;;;;17.25;16.00;;;;;12.70;73.08;100572.19;146601;600;46013;-65
2023/12/15 04:24:42;;;;;;;;;17.25;14.25;;;;;12.64;73.45;100571.94;146605;594;47020;-65
2023/12/15 04:27:55;;;;;;;;;14.75;14.75;;;;;12.60;73.69;100571.78;146603;629;46017;-64
2023/12/15 04:30:52;;;;;;;;;15.75;13.00;;;;;12.53;74.60;100574.97;146605;574;47021;-66
2023/12/15 04:33:50;;;;;;;;;13.25;9.25;;;;;12.50;74.63;100570.53;146601;608;47012;-66
2023/12/15 04:36:49;;;;;;;;;12.75;8.00;;;;;12.57;74.84;100561.25;146599;600;47010;-65
2023/12/15 04:39:46;;;;;;;;;10.75;9.50;;;;;12.69;75.97;100574.75;146603;660;47012;-66
2023/12/15 04:42:59;;;;;;;;;12.25;10.00;;;;;12.88;74.94;100572.06;146604;608;46020;-65
2023/12/15 04:45:57;;;;;;;;;14.75;12.00;;;;;12.99;74.34;100588.09;146602;569;46016;-66
2023/12/15 04:48:50;;;;;;;;;15.75;12.25;;;;;13.00;73.68;100591.59;146605;691;47010;-65
2023/12/15 04:51:48;;;;;;;;;13.50;11.25;;;;;12.98;72.64;100590.63;146605;570;46014;-65
2023/12/15 04:55:02;;;;;;;;;21.25;16.00;;;;;8.97;71.35;99920.06;146606;598;47010;-66
2023/12/15 04:58:06;;;;;;;;;36.75;31.75;;;;;12.85;73.02;100604.88;146605;589;46016;-65
2023/12/15 05:01:25;;;;;;;;;;;;;;;;;;;;;
2023/12/15 05:04:24;;;;;;;;;36.50;30.25;;;;;12.73;73.59;100596.56;146603;621;48012;-65
2023/12/15 05:07:26;;;;;;;;;21.75;17.50;;;;;12.69;73.41;100598.16;146605;634;46020;-65
2023/12/15 05:10:35;;;;;;;;;21.75;18.00;;;;;12.64;73.46;100604.88;146598;663;47016;-66
2023/12/15 05:13:34;;;;;;;;;18.75;16.25;;;;;12.62;74.64;100610.03;146602;633;47010;-66
2023/12/15 05:16:26;;;;;;;;;16.75;15.00;;;;;12.55;75.11;100607.09;146603;592;46012;-67
2023/12/15 05:19:18;;;;;;;;;17.50;13.25;;;;;12.50;75.54;100621.66;146602;617;48010;-65
2023/12/15 05:22:16;;;;;;;;;18.25;15.50;;;;;12.44;76.05;100617.06;146600;587;46584;-62
2023/12/15 05:25:15;;;;;;;;;15.00;13.75;;;;;12.39;76.32;100614.25;146602;575;47020;-63
2023/12/15 05:28:23;;;;;;;;;15.00;11.75;;;;;12.38;76.81;100622.03;146603;592;46017;-65
2023/12/15 05:31:23;;;;;;;;;17.25;13.75;;;;;12.37;76.38;100628.94;146605;599;47010;-66
2023/12/15 05:34:23;;;;;;;;;13.25;12.75;;;;;12.36;76.23;100632.34;146605;587;46013;-65
2023/12/15 05:37:16;;;;;;;;;12.75;11.50;;;;;12.35;76.51;100634.88;146607;614;46020;-64
2023/12/15 05:40:20;;;;;;;;;11.25;10.00;;;;;12.33;75.72;100637.41;146605;574;46012;-64
2023/12/15 05:43:29;;;;;;;;;12.00;10.75;;;;;8.48;75.27;99976.38;146605;586;46010;-66
2023/12/15 05:46:35;;;;;;;;;;;;;;;;;;;;;
2023/12/15 05:49:37;;;;;;;;;10.50;8.00;;;;;12.25;76.25;100646.59;146605;599;46021;-66
2023/12/15 05:52:35;;;;;;;;;12.75;10.75;;;;;12.24;76.42;100650.94;146603;600;47012;-67
2023/12/15 05:55:30;;;;;;;;;18.00;11.75;;;;;12.19;77.22;100647.22;146606;567;47010;-65
2023/12/15 05:58:27;;;;;;;;;15.25;11.00;;;;;12.16;77.88;100660.09;146601;590;46016;-66
2023/12/15 06:01:22;;;;;;;;;11.25;10.00;;;;;12.13;77.66;100654.75;146608;563;46010;-68
2023/12/15 06:04:17;;;;;;;;;11.50;11.00;;;;;12.14;77.72;100653.94;146600;618;46032;-67
2023/12/15 06:07:19;;;;;;;;;11.50;10.00;;;;;12.18;77.73;100662.75;146607;592;46010;-66
2023/12/15 06:10:30;;;;;;;;;13.50;11.25;;;;;12.23;77.45;100669.03;146626;574;45916;-66
2023/12/15 06:13:33;;;;;;;;;15.50;9.50;;;;;12.27;76.79;100668.34;146624;586;46014;-64
2023/12/15 06:16:38;;;;;;;;;11.25;10.25;;;;;12.31;78.48;100667.69;146625;688;45916;-67
2023/12/15 06:19:32;;;;;;;;;10.00;10.00;;;;;12.36;77.73;100686.94;146628;666;46029;-65
2023/12/15 06:22:42;;;;;;;;;12.00;7.25;;;;;12.40;77.28;100688.88;146625;660;46010;-65
2023/12/15 06:25:46;;;;;;;;;15.75;14.00;;;;;12.46;77.35;100688.22;146631;594;44020;-66
2023/12/15 06:28:45;;;;;;;;;14.25;12.25;;;;;12.52;77.42;100700.59;146624;716;45016;-65
2023/12/15 06:31:47;;;;;;;;;18.50;14.50;;;;;12.56;77.92;100702.53;146628;615;46010;-66
2023/12/15 06:35:05;;;;;;;;;11.00;8.00;;;;;12.61;76.80;100719.22;146626;581;45016;-66
2023/12/15 06:38:11;;;;;;;;;12.25;11.50;;;;;12.67;78.05;100720.34;146625;569;46010;-66
2023/12/15 06:41:15;;;;;;;;;67.50;51.00;;;;;12.78;77.88;100731.25;146627;569;45914;-64
2023/12/15 06:44:07;;;;;;;;;26.50;21.50;;;;;12.83;78.26;100734.03;146626;579;45020;-65
2023/12/15 06:47:05;;;;;;;;;9.50;8.00;;;;;12.90;77.86;100728.28;146613;564;46016;-66
2023/12/15 06:50:04;;;;;;;;;12.50;9.00;;;;;12.91;78.38;100736.13;146627;595;46010;-66
2023/12/15 06:53:04;;;;;;;;;7.00;7.00;;;;;12.93;78.44;100744.91;146624;602;45016;-66
2023/12/15 06:56:03;;;;;;;;;8.25;7.25;;;;;12.97;78.38;100743.31;146625;706;45021;-65
2023/12/15 06:59:11;;;;;;;;;;;;;;;;;;;;;
2023/12/15 07:02:13;;;;;;;;;12.25;8.75;;;;;13.09;78.51;100736.00;146631;627;45010;-65
2023/12/15 07:05:27;;;;;;;;;16.75;14.00;;;;;13.18;77.26;100741.59;146624;584;45915;-65
2023/12/15 07:08:29;;;;;;;;;15.75;14.00;;;;;13.26;77.76;100756.66;146618;612;46014;-65
2023/12/15 07:11:21;;;;;;;;;16.00;14.75;;;;;13.35;77.90;100760.53;146605;614;46013;-65
2023/12/15 07:14:14;;;;;;;;;29.25;25.50;;;;;13.46;78.09;100757.47;146604;574;46020;-65
2023/12/15 07:17:15;;;;;;;;;31.25;28.25;;;;;13.54;78.12;100762.16;146599;570;47914;-65
2023/12/15 07:20:25;;;;;;;;;46.00;37.75;;;;;13.64;77.58;100763.41;146606;768;47010;-65
2023/12/15 07:23:30;;;;;;;;;49.50;40.50;;;;;13.73;77.21;100779.41;146601;705;46016;-66
2023/12/15 07:26:28;;;;;;;;;45.50;36.00;;;;;13.81;77.31;100769.28;146606;606;46021;-65
2023/12/15 07:29:24;;;;;;;;;42.00;33.25;;;;;13.90;77.72;100773.97;146598;628;46016;-66
2023/12/15 07:32:23;;;;;;;;;31.00;29.00;;;;;14.00;77.48;100768.28;146605;653;46021;-65
2023/12/15 07:35:15;;;;;;;;;31.00;29.75;;;;;14.08;77.10;100766.81;146603;622;47012;-66
2023/12/15 07:38:08;;;;;;;;;29.25;27.50;;;;;14.11;76.38;100766.94;146605;563;46020;-66
2023/12/15 07:41:07;;;;;;;;;26.25;25.25;;;;;14.16;76.62;100774.94;146605;622;46016;-67
2023/12/15 07:44:09;;;;;;;;;50.00;39.50;;;;;14.20;76.51;100776.84;146609;626;46010;-66
2023/12/15 07:47:20;;;;;;;;;47.75;38.00;;;;;14.27;75.27;100779.75;146600;591;46017;-65
2023/12/15 07:50:17;;;;;;;;;51.25;40.00;;;;;14.39;75.91;100784.53;146605;569;46010;-65
2023/12/15 07:53:39;;;;;;;;;48.25;38.25;;;;;10.97;74.29;100170.31;146598;611;47012;-66
2023/12/15 07:56:46;;;;;;;;;47.75;37.25;;;;;14.62;76.18;100790.59;146604;616;46021;-66
2023/12/15 07:59:49;;;;;;;;;43.50;34.25;;;;;14.74;75.09;100803.22;146603;642;46016;-65
2023/12/15 08:02:47;;;;;;;;;40.75;33.00;;;;;14.78;72.89;100805.97;146604;570;46021;-66
2023/12/15 08:05:51;;;;;;;;;36.25;31.00;;;;;14.80;71.86;100806.03;146598;578;47012;-65
2023/12/15 08:08:55;;;;;;;;;29.50;28.00;;;;;14.87;72.16;100807.13;146605;568;46020;-65
2023/12/15 08:12:04;;;;;;;;;41.25;34.00;;;;;14.96;71.31;100816.19;146599;605;47012;-65
2023/12/15 08:15:11;;;;;;;;;40.50;31.75;;;;;15.07;70.42;100824.38;146604;573;47010;-65
2023/12/15 08:18:03;;;;;;;;;39.25;31.25;;;;;15.13;69.13;100814.13;146598;591;47012;-67
2023/12/15 08:21:02;;;;;;;;;40.25;34.25;;;;;15.19;68.47;100813.47;146607;592;47010;-65
2023/12/15 08:24:07;;;;;;;;;42.75;35.00;;;;;15.24;67.26;100810.16;146603;577;46016;-66
2023/12/15 08:27:12;;;;;;;;;40.75;34.50;;;;;15.29;67.29;100804.22;146606;611;46020;-65
2023/12/15 08:30:19;;;;;;;;;36.50;31.00;;;;;15.37;67.52;100806.25;146600;689;46915;-66
2023/12/15 08:33:18;;;;;;;;;36.00;30.25;;;;;15.46;66.28;100813.50;146604;601;46021;-65
2023/12/15 08:36:31;;;;;;;;;36.50;31.75;;;;;15.52;65.69;100803.25;146604;695;46916;-66
2023/12/15 08:39:38;;;;;;;;;26.75;23.25;;;;;15.62;65.41;100802.69;146605;702;46021;-66
2023/12/15 08:42:52;;;;;;;;;30.00;27.50;;;;;15.73;65.38;100799.56;146601;613;46016;-65
2023/12/15 08:45:59;;;;;;;;;27.50;26.00;;;;;15.84;65.03;100803.41;146604;569;46020;-66
2023/12/15 08:48:54;;;;;;;;;28.75;27.75;;;;;15.99;64.29;100801.28;146601;617;47042;-66
2023/12/15 08:51:56;;;;;;;;;31.75;28.25;;;;;16.07;64.17;100789.28;146607;587;46020;-65
2023/12/15 08:54:52;;;;;;;;;38.50;32.25;;;;;16.17;64.03;100807.06;146599;599;47013;-65
2023/12/15 08:57:51;;;;;;;;;42.75;33.00;;;;;16.27;64.87;100804.72;146606;576;46014;-66
2023/12/15 09:00:55;;;;;;;;;;;;;;;;;;;;;
2023/12/15 09:03:53;;;;;;;;;49.25;39.50;;;;;16.37;64.69;100791.03;146600;567;47021;-66
2023/12/15 09:07:07;;;;;;;;;;;;;;;;;;;;;
2023/12/15 09:10:33;;;;;;;;;48.00;39.25;;;;;12.99;62.76;100205.53;146627;630;45021;-67
2023/12/15 09:13:29;;;;;;;;;53.25;40.25;;;;;16.40;62.32;100812.94;146622;597;46047;-65
2023/12/15 09:16:44;;;;;;;;;45.25;37.75;;;;;13.14;63.60;100252.84;146627;586;45021;-65
2023/12/15 09:19:42;;;;;;;;;42.00;34.00;;;;;16.44;64.24;100810.41;146625;602;46012;-66
2023/12/15 09:22:46;;;;;;;;;34.00;26.50;;;;;16.48;63.61;100809.66;146624;655;46010;-66
2023/12/15 09:25:42;;;;;;;;;27.50;27.25;;;;;16.55;63.06;100816.87;146625;590;46012;-66
2023/12/15 09:28:45;;;;;;;;;28.75;22.00;;;;;16.56;62.98;100806.44;146627;687;45020;-67
2023/12/15 09:31:50;;;;;;;;;23.75;20.00;;;;;16.53;61.22;100816.81;146621;642;47017;-65
2023/12/15 09:34:43;;;;;;;;;18.75;16.75;;;;;16.47;61.84;100824.47;146626;579;45020;-65
2023/12/15 09:37:46;;;;;;;;;21.50;16.75;;;;;12.75;62.34;100170.88;146623;603;46012;-65
2023/12/15 09:40:54;;;;;;;;;17.50;13.25;;;;;16.40;62.35;100809.47;146624;630;46010;-66
2023/12/15 09:43:54;;;;;;;;;17.25;15.00;;;;;16.34;61.83;100804.03;146625;604;45016;-67
2023/12/15 09:46:48;;;;;;;;;24.50;21.25;;;;;16.29;61.09;100803.00;146627;613;46010;-65
2023/12/15 09:49:57;;;;;;;;;;;;;;;;;;;;;
2023/12/15 09:53:05;;;;;;;;;20.50;20.50;;;;;13.09;61.97;100277.87;146626;607;46011;-66
2023/12/15 09:56:23;;;;;;;;;23.75;20.50;;;;;16.09;63.11;100798.09;146629;576;45012;-68
2023/12/15 09:59:31;;;;;;;;;28.50;22.50;;;;;16.08;62.27;100800.66;146627;599;45020;-65
2023/12/15 10:02:40;;;;;;;;;29.75;27.75;;;;;16.02;61.98;100803.97;146626;597;46012;-65
2023/12/15 10:06:04;;;;;;;;;33.50;28.00;;;;;16.02;62.73;100805.72;146626;597;45010;-67
2023/12/15 10:09:00;;;;;;;;;26.00;23.25;;;;;16.00;63.24;100804.75;146610;569;46013;-66
2023/12/15 10:11:56;;;;;;;;;22.75;20.25;;;;;15.99;62.05;100809.13;146605;565;47010;-66
2023/12/15 10:15:05;;;;;;;;;25.00;20.75;;;;;15.98;62.84;100817.81;146601;678;46916;-66
2023/12/15 10:18:02;;;;;;;;;30.00;27.25;;;;;15.95;63.49;100822.94;146608;563;46010;-65
2023/12/15 10:20:58;;;;;;;;;25.75;25.00;;;;;15.93;63.24;100824.63;146594;592;48913;-65
2023/12/15 10:23:54;;;;;;;;;26.50;22.50;;;;;15.89;63.99;100818.41;146604;610;46020;-66
2023/12/15 10:27:03;;;;;;;;;29.50;26.75;;;;;12.74;63.84;100299.16;146598;610;47914;-67
2023/12/15 10:30:09;;;;;;;;;;;;;;;;;;;;;
2023/12/15 10:33:05;;;;;;;;;30.50;27.75;;;;;15.84;63.99;100825.22;146606;600;46016;-65
2023/12/15 10:36:10;;;;;;;;;32.75;26.50;;;;;15.86;64.82;100835.75;146606;601;47010;-66
2023/12/15 10:39:40;;;;;;;;;26.50;22.25;;;;;12.36;64.17;100242.34;146602;575;46034;-66
2023/12/15 10:42:52;;;;;;;;;23.75;20.25;;;;;15.81;64.60;100848.66;146604;663;46014;-67
2023/12/15 10:45:50;;;;;;;;;25.00;21.50;;;;;15.76;64.40;100844.09;146600;612;46017;-66
2023/12/15 10:48:56;;;;;;;;;23.75;23.50;;;;;12.29;64.07;100245.56;146604;612;47010;-66
2023/12/15 10:52:08;;;;;;;;;;;;;;;;;;;;;
2023/12/15 10:55:16;;;;;;;;;23.50;21.00;;;;;15.74;64.49;100851.03;146602;674;47014;-65
2023/12/15 10:58:30;;;;;;;;;24.00;21.00;;;;;15.69;64.75;100845.62;146598;620;46913;-67
2023/12/15 11:01:28;;;;;;;;;23.75;21.75;;;;;15.67;64.61;100844.72;146606;638;46020;-65
2023/12/15 11:04:39;;;;;;;;;20.50;17.00;;;;;12.32;65.51;100273.38;146604;563;46012;-66
2023/12/15 11:07:36;;;;;;;;;18.25;17.25;;;;;15.62;66.06;100846.25;146607;582;46021;-66
2023/12/15 11:10:46;;;;;;;;;23.50;19.00;;;;;15.62;66.41;100846.25;146602;572;46916;-66
2023/12/15 11:14:11;;;;;;;;;22.00;20.00;;;;;11.23;66.39;100082.25;146600;575;47010;-66
2023/12/15 11:17:14;;;;;;;;;21.00;16.25;;;;;15.69;67.38;100832.56;146602;574;46913;-64
2023/12/15 11:21:04;;;;;;;;;;;;;;;;;;;;;
2023/12/15 11:24:15;;;;;;;;;39.75;31.25;;;;;15.80;66.74;100838.16;146603;587;46017;-65
2023/12/15 11:27:13;;;;;;;;;60.25;46.00;;;;;15.82;67.15;100833.84;146604;624;46028;-66
2023/12/15 11:30:44;;;;;;;;;25.75;24.25;;;;;12.74;66.00;100297.47;146601;565;46014;-65
2023/12/15 11:34:11;;;;;;;;;43.00;32.00;;;;;15.87;66.28;100830.53;146603;616;46020;-65
2023/12/15 11:37:16;;;;;;;;;36.75;31.25;;;;;15.98;66.47;100829.97;146602;646;46017;-65
2023/12/15 11:40:20;;;;;;;;;40.50;33.50;;;;;16.03;66.40;100824.06;146606;570;46014;-65
2023/12/15 11:43:18;;;;;;;;;41.25;33.25;;;;;16.11;66.49;100822.56;146602;634;46013;-66
2023/12/15 11:46:13;;;;;;;;;42.25;32.75;;;;;16.16;65.98;100815.72;146603;715;46020;-65
2023/12/15 11:49:30;;;;;;;;;25.50;22.50;;;;;16.25;64.69;100820.34;146602;586;46016;-66
2023/12/15 11:52:25;;;;;;;;;20.00;18.50;;;;;16.29;63.93;100808.25;146604;582;46024;-67
2023/12/15 11:55:27;;;;;;;;;30.00;25.75;;;;;16.30;64.11;100797.84;146603;710;47016;-68
2023/12/15 11:58:42;;;;;;;;;22.25;18.25;;;;;13.06;63.33;100225.69;146607;587;46010;-65
2023/12/15 12:01:59;;;;;;;;;23.75;22.00;;;;;14.08;63.40;100391.38;146602;607;46911;-65
2023/12/15 12:05:22;;;;;;;;;29.50;24.00;;;;;16.40;63.42;100785.91;146605;635;46010;-66
2023/12/15 12:08:28;;;;;;;;;28.25;24.00;;;;;16.42;62.35;100786.84;146602;590;46012;-66
2023/12/15 12:11:27;;;;;;;;;28.75;26.25;;;;;16.40;63.31;100789.41;146604;598;46020;-67
2023/12/15 12:14:31;;;;;;;;;26.25;23.00;;;;;16.36;62.08;100803.25;146601;597;47016;-65
2023/12/15 12:17:47;;;;;;;;;;;;;;;;;;;;;
2023/12/15 12:21:04;;;;;;;;;22.75;21.50;;;;;16.17;61.75;100811.41;146599;581;47017;-66
2023/12/15 12:24:13;;;;;;;;;20.50;18.00;;;;;16.12;61.74;100819.09;146603;653;45030;-65
2023/12/15 12:27:05;;;;;;;;;19.50;17.75;;;;;16.10;62.28;100825.12;146602;607;46016;-66
2023/12/15 12:29:59;;;;;;;;;24.25;20.50;;;;;16.07;62.33;100823.28;146604;588;47021;-66
2023/12/15 12:32:55;;;;;;;;;18.75;17.00;;;;;16.08;62.28;100827.72;146602;633;46012;-65
2023/12/15 12:35:52;;;;;;;;;27.00;24.25;;;;;16.06;62.60;100823.25;146601;576;46036;-65
2023/12/15 12:38:51;;;;;;;;;33.25;28.50;;;;;16.06;62.65;100828.50;146603;624;47012;-67
2023/12/15 12:41:51;;;;;;;;;21.75;21.00;;;;;16.10;62.27;100830.34;146605;619;46010;-66
2023/12/15 12:44:54;;;;;;;;;23.25;21.75;;;;;16.10;62.08;100832.97;146605;581;46017;-66
2023/12/15 12:47:51;;;;;;;;;21.50;18.25;;;;;16.09;62.47;100833.81;146605;691;46020;-66
2023/12/15 12:51:01;;;;;;;;;20.00;18.25;;;;;16.10;62.62;100840.81;146601;608;47012;-66
2023/12/15 12:54:02;;;;;;;;;22.25;19.25;;;;;16.10;62.51;100848.66;146603;673;46010;-67
2023/12/15 12:57:04;;;;;;;;;22.00;19.00;;;;;16.10;62.91;100851.28;146602;579;46028;-66
2023/12/15 13:00:05;;;;;;;;;28.00;23.00;;;;;16.08;62.85;100845.12;146607;668;46010;-66
2023/12/15 13:03:08;;;;;;;;;27.00;20.75;;;;;16.04;63.49;100851.97;146601;600;46012;-66
2023/12/15 13:06:10;;;;;;;;;36.00;31.50;;;;;15.98;63.72;100853.50;146604;653;47010;-66
2023/12/15 13:09:34;;;;;;;;;27.25;23.50;;;;;12.27;64.00;100222.91;146600;707;46916;-65
2023/12/15 13:12:41;;;;;;;;;30.00;26.50;;;;;15.81;65.01;100860.84;146605;586;46021;-65
2023/12/15 13:15:52;;;;;;;;;29.25;27.75;;;;;15.73;65.21;100851.84;146601;592;47012;-66
2023/12/15 13:18:49;;;;;;;;;48.25;38.00;;;;;15.67;65.79;100856.06;146603;606;46020;-67
2023/12/15 13:21:41;;;;;;;;;53.00;41.00;;;;;15.63;66.41;100848.91;146601;742;46016;-67
2023/12/15 13:24:43;;;;;;;;;37.00;32.00;;;;;15.59;66.22;100836.56;146606;575;46020;-66
2023/12/15 13:27:48;;;;;;;;;44.75;34.75;;;;;15.59;66.64;100840.91;146599;593;47013;-65
2023/12/15 13:30:56;;;;;;;;;64.25;49.50;;;;;15.58;66.67;100837.44;146604;565;46020;-66
2023/12/15 13:33:48;;;;;;;;;52.25;40.50;;;;;15.62;67.00;100841.03;146598;594;46016;-66
2023/12/15 13:37:02;;;;;;;;;35.50;30.75;;;;;15.65;66.04;100835.91;146606;611;46020;-66
2023/12/15 13:40:17;;;;;;;;;42.75;34.00;;;;;13.96;65.05;100531.78;146599;584;47033;-65
2023/12/15 13:43:30;;;;;;;;;22.75;18.50;;;;;15.79;64.75;100828.50;146604;639;46021;-65
2023/12/15 13:46:53;;;;;;;;;;;;;;;;;;;;;
2023/12/15 13:49:52;;;;;;;;;35.50;32.00;;;;;15.84;65.11;100853.97;146602;579;47010;-68
2023/12/15 13:52:53;;;;;;;;;22.25;20.50;;;;;15.84;65.38;100858.31;146603;563;46012;-66
2023/12/15 13:55:54;;;;;;;;;27.25;23.25;;;;;15.84;65.40;100859.19;146607;581;46010;-65
2023/12/15 13:58:53;;;;;;;;;16.75;15.00;;;;;15.80;64.04;100864.31;146602;585;47012;-65
2023/12/15 14:01:48;;;;;;;;;24.25;22.75;;;;;15.73;64.04;100854.47;146602;638;47010;-67
2023/12/15 14:05:00;;;;;;;;;19.75;19.00;;;;;15.64;63.18;100855.03;146597;638;46017;-65
2023/12/15 14:08:15;;;;;;;;;13.25;12.75;;;;;15.57;63.30;100850.44;146607;589;47010;-64
2023/12/15 14:11:19;;;;;;;;;21.75;17.75;;;;;15.53;63.13;100854.66;146603;619;46016;-65
2023/12/15 14:14:14;;;;;;;;;25.75;24.00;;;;;15.52;64.03;100873.81;146607;603;46020;-66
2023/12/15 14:17:17;;;;;;;;;30.50;27.50;;;;;15.47;63.69;100886.72;146604;620;46016;-64